Time;durP1;ratioP1;P1;durP2;ratioP2;P2;SDS_P1;SDS_P2;PMS_P1;PMS_P2;Temp;Humidity;BMP_temperature;BMP_pressure;BME280_temperature;BME280_humidity;BME280_pressure;Samples;Min_cycle;Max_cycle;Signal;HPM_P1;HPM_P2
2021/12/19 00:02:10;;;;;;;17.25;6.47;;;;;;;;;;5024166;28;20445;-91
2021/12/19 00:09:48;;;;;;;17.08;6.68;;;;;;;;;;5028564;28;20037;-91
2021/12/19 00:12:13;;;;;;;20.35;7.95;;;;;;;;;;5030094;28;20033;-87
2021/12/19 00:14:39;;;;;;;19.23;7.15;;;;;;;;;;5028099;28;20021;-85
2021/12/19 00:17:11;;;;;;;16.13;7.20;;;;;;;;;;5026523;28;20041;-89
2021/12/19 00:19:37;;;;;;;19.23;7.60;;;;;;;;;;5031657;28;20108;-83
2021/12/19 00:22:02;;;;;;;18.85;7.70;;;;;;;;;;5025309;28;20434;-84
2021/12/19 00:24:29;;;;;;;21.00;7.88;;;;;;;;;;5032098;28;20033;-88
2021/12/19 00:26:57;;;;;;;18.40;7.57;;;;;;;;;;5025843;28;20477;-85
2021/12/19 00:29:22;;;;;;;16.23;7.20;;;;;;;;;;5029440;28;20030;-90
2021/12/19 00:31:48;;;;;;;19.17;7.35;;;;;;;;;;5030352;28;20055;-89
2021/12/19 00:34:15;;;;;;;16.50;7.15;;;;;;;;;;5031397;28;20105;-84
2021/12/19 00:36:41;;;;;;;17.30;6.53;;;;;;;;;;5033499;28;20036;-84
2021/12/19 00:39:07;;;;;;;17.85;6.43;;;;;;;;;;5031811;28;20026;-89
2021/12/19 00:41:32;;;;;;;15.43;5.97;;;;;;;;;;5038395;28;20035;-84
2021/12/19 00:44:09;;;;;;;17.75;6.10;;;;;;;;;;5036393;28;20028;-84
2021/12/19 00:46:45;;;;;;;13.55;5.85;;;;;;;;;;5036325;28;20045;-84
2021/12/19 00:49:11;;;;;;;14.80;6.18;;;;;;;;;;5028580;28;20036;-90
2021/12/19 00:51:40;;;;;;;13.55;6.28;;;;;;;;;;5028129;28;20029;-90
2021/12/19 00:54:09;;;;;;;13.65;5.60;;;;;;;;;;5031813;28;20026;-84
2021/12/19 00:56:36;;;;;;;13.35;6.53;;;;;;;;;;5033141;28;20036;-89
2021/12/19 00:59:01;;;;;;;12.55;5.75;;;;;;;;;;5031456;28;20024;-90
2021/12/19 01:01:27;;;;;;;13.48;6.85;;;;;;;;;;5031720;28;20033;-91
2021/12/19 01:03:52;;;;;;;15.40;6.82;;;;;;;;;;5033320;28;20033;-84
2021/12/19 01:06:19;;;;;;;15.38;7.78;;;;;;;;;;5032326;28;20033;-83
2021/12/19 01:08:44;;;;;;;16.95;7.35;;;;;;;;;;5029532;28;20014;-89
2021/12/19 01:11:13;;;;;;;18.50;7.75;;;;;;;;;;5033055;28;20126;-83
2021/12/19 01:13:38;;;;;;;17.27;7.50;;;;;;;;;;5031876;28;20045;-89
2021/12/19 01:16:04;;;;;;;20.40;8.48;;;;;;;;;;5031882;28;20112;-89
2021/12/19 01:18:30;;;;;;;22.13;9.02;;;;;;;;;;5033074;28;20042;-90
2021/12/19 01:20:56;;;;;;;18.58;8.57;;;;;;;;;;5035516;28;20064;-84
2021/12/19 01:23:22;;;;;;;23.40;9.57;;;;;;;;;;5025287;28;20029;-88
2021/12/19 01:25:48;;;;;;;20.83;9.18;;;;;;;;;;5031968;28;20025;-85
2021/12/19 01:28:14;;;;;;;23.85;10.10;;;;;;;;;;5031215;28;20014;-88
2021/12/19 01:30:40;;;;;;;24.33;10.02;;;;;;;;;;5035850;28;20029;-90
2021/12/19 01:33:06;;;;;;;23.45;11.30;;;;;;;;;;5031175;28;20433;-89
2021/12/19 01:35:32;;;;;;;29.58;11.48;;;;;;;;;;5030636;28;20473;-84
2021/12/19 01:37:58;;;;;;;27.52;11.18;;;;;;;;;;5032477;28;20037;-90
2021/12/19 01:40:24;;;;;;;27.48;11.27;;;;;;;;;;5031785;28;20048;-83
2021/12/19 01:42:53;;;;;;;30.42;12.70;;;;;;;;;;5031925;28;20038;-84
2021/12/19 01:45:29;;;;;;;31.17;12.23;;;;;;;;;;5026577;28;20053;-91
2021/12/19 01:47:56;;;;;;;33.17;13.40;;;;;;;;;;5044825;28;20022;-88
2021/12/19 01:50:22;;;;;;;30.65;12.32;;;;;;;;;;5031284;28;20116;-83
2021/12/19 01:52:49;;;;;;;22.52;9.60;;;;;;;;;;5030087;28;20092;-89
2021/12/19 01:55:14;;;;;;;16.33;8.77;;;;;;;;;;5034986;28;20072;-83
2021/12/19 01:57:42;;;;;;;13.43;7.47;;;;;;;;;;5028519;28;20045;-88
2021/12/19 02:00:18;;;;;;;14.95;7.38;;;;;;;;;;5027932;28;20083;-89
2021/12/19 02:02:43;;;;;;;11.85;6.55;;;;;;;;;;5029988;28;20033;-85
2021/12/19 02:05:09;;;;;;;12.50;5.93;;;;;;;;;;5030085;28;20048;-88
2021/12/19 02:07:34;;;;;;;11.50;5.90;;;;;;;;;;5027773;28;20125;-89
2021/12/19 02:09:59;;;;;;;11.23;5.85;;;;;;;;;;5031105;28;20042;-85
2021/12/19 02:12:25;;;;;;;10.23;5.63;;;;;;;;;;5033079;28;20099;-84
2021/12/19 02:14:50;;;;;;;9.48;5.13;;;;;;;;;;5029216;28;20024;-89
2021/12/19 02:17:17;;;;;;;14.10;5.05;;;;;;;;;;5029002;28;20025;-84
2021/12/19 02:19:42;;;;;;;8.75;4.60;;;;;;;;;;5030367;28;20047;-84
2021/12/19 02:22:07;;;;;;;7.18;3.53;;;;;;;;;;5030453;28;20032;-88
2021/12/19 02:24:34;;;;;;;7.50;3.33;;;;;;;;;;5024747;28;20021;-90
2021/12/19 02:27:00;;;;;;;8.00;3.40;;;;;;;;;;5030481;28;20133;-91
2021/12/19 02:29:25;;;;;;;6.65;3.10;;;;;;;;;;5032983;28;20097;-89
2021/12/19 02:31:51;;;;;;;9.43;3.50;;;;;;;;;;5027584;28;20026;-91
2021/12/19 02:34:21;;;;;;;8.57;3.67;;;;;;;;;;5031732;28;20068;-89
2021/12/19 02:50:24;;;;;;;7.18;3.75;;;;;;;;;;5031333;28;20036;-87
2021/12/19 02:52:50;;;;;;;11.18;4.57;;;;;;;;;;5031373;28;20021;-83
2021/12/19 02:55:17;;;;;;;14.25;5.63;;;;;;;;;;5027422;28;20029;-89
2021/12/19 02:57:42;;;;;;;14.68;6.18;;;;;;;;;;5030451;28;20061;-90
2021/12/19 03:00:11;;;;;;;14.52;5.75;;;;;;;;;;5029899;28;20135;-87
2021/12/19 03:02:36;;;;;;;14.38;6.07;;;;;;;;;;5030205;28;20049;-85
2021/12/19 03:05:03;;;;;;;15.73;6.20;;;;;;;;;;5029513;28;20120;-83
2021/12/19 03:07:30;;;;;;;12.63;5.30;;;;;;;;;;5029365;28;20025;-83
2021/12/19 03:17:59;;;;;;;11.60;4.28;;;;;;;;;;5029452;28;20074;-83
2021/12/19 03:20:30;;;;;;;10.95;4.68;;;;;;;;;;5030471;28;21434;-88
2021/12/19 03:22:58;;;;;;;11.38;4.15;;;;;;;;;;5030046;28;20041;-90
2021/12/19 03:25:24;;;;;;;11.63;4.43;;;;;;;;;;5029522;28;20022;-83
2021/12/19 03:27:49;;;;;;;9.75;4.07;;;;;;;;;;5025322;28;20540;-85
2021/12/19 03:30:15;;;;;;;8.75;3.85;;;;;;;;;;5030669;28;20104;-88
2021/12/19 03:32:41;;;;;;;11.93;4.18;;;;;;;;;;5041502;28;20448;-87
2021/12/19 03:35:07;;;;;;;6.40;3.17;;;;;;;;;;5020917;28;20025;-88
2021/12/19 03:37:33;;;;;;;7.85;2.92;;;;;;;;;;5032240;28;20466;-89
2021/12/19 03:40:12;;;;;;;8.13;3.50;;;;;;;;;;5028570;28;20104;-90
2021/12/19 03:42:47;;;;;;;6.30;3.00;;;;;;;;;;5025970;28;20030;-89
2021/12/19 03:45:17;;;;;;;9.32;3.08;;;;;;;;;;5024510;28;20124;-88
2021/12/19 03:47:42;;;;;;;7.60;3.08;;;;;;;;;;5029216;28;20041;-88
2021/12/19 03:50:11;;;;;;;7.32;3.20;;;;;;;;;;5025145;28;20540;-83
2021/12/19 03:52:39;;;;;;;7.57;3.45;;;;;;;;;;5022436;28;20030;-88
2021/12/19 03:55:06;;;;;;;7.28;2.83;;;;;;;;;;5026672;28;20034;-84
2021/12/19 03:57:31;;;;;;;6.90;2.97;;;;;;;;;;5027795;28;20030;-90
2021/12/19 03:59:57;;;;;;;7.60;3.35;;;;;;;;;;5022621;28;20033;-84
2021/12/19 04:02:26;;;;;;;6.35;3.03;;;;;;;;;;5026970;28;20040;-83
2021/12/19 04:04:54;;;;;;;7.00;2.95;;;;;;;;;;5030505;28;20028;-84
2021/12/19 04:07:21;;;;;;;7.18;3.10;;;;;;;;;;5025976;28;20484;-88
2021/12/19 04:09:47;;;;;;;8.63;3.58;;;;;;;;;;5033287;28;20439;-83
2021/12/19 04:12:12;;;;;;;8.43;3.60;;;;;;;;;;5031520;28;20136;-84
2021/12/19 04:14:38;;;;;;;7.50;3.08;;;;;;;;;;5044767;28;20072;-84
2021/12/19 04:17:06;;;;;;;6.25;2.95;;;;;;;;;;5030633;28;20183;-83
2021/12/19 04:19:32;;;;;;;8.82;3.22;;;;;;;;;;5048435;28;20123;-90
2021/12/19 04:21:58;;;;;;;7.10;2.80;;;;;;;;;;5033781;28;20028;-83
2021/12/19 04:24:23;;;;;;;7.15;3.10;;;;;;;;;;5032650;28;20079;-84
2021/12/19 04:26:49;;;;;;;7.78;3.30;;;;;;;;;;5032228;28;20105;-85
2021/12/19 04:29:14;;;;;;;8.73;3.47;;;;;;;;;;5030577;28;21620;-85
2021/12/19 04:31:40;;;;;;;7.18;3.20;;;;;;;;;;5029893;28;20044;-83
2021/12/19 04:34:06;;;;;;;7.53;3.05;;;;;;;;;;5027628;28;20029;-89
2021/12/19 04:36:37;;;;;;;7.57;2.90;;;;;;;;;;5031589;28;20084;-83
2021/12/19 04:42:12;;;;;;;9.65;3.13;;;;;;;;;;5031833;28;20112;-88
2021/12/19 04:53:02;;;;;;;;;;;;;;;;;;5051598;28;20040;-83
2021/12/19 05:01:03;;;;;;;9.02;3.33;;;;;;;;;;5031787;28;20112;-83
2021/12/19 05:06:03;;;;;;;8.52;3.33;;;;;;;;;;5034763;28;20041;-83
2021/12/19 05:14:09;;;;;;;6.53;2.85;;;;;;;;;;5033696;28;20039;-90
2021/12/19 05:16:39;;;;;;;8.02;3.50;;;;;;;;;;5030265;28;20029;-83
2021/12/19 05:19:11;;;;;;;8.23;3.60;;;;;;;;;;5031056;28;20080;-91
2021/12/19 05:21:39;;;;;;;8.70;3.83;;;;;;;;;;5025201;28;20108;-91
2021/12/19 05:26:52;;;;;;;9.27;4.00;;;;;;;;;;5010359;28;20057;-89
2021/12/19 05:29:17;;;;;;;8.60;4.00;;;;;;;;;;5034636;28;20029;-85
2021/12/19 05:31:43;;;;;;;9.45;3.63;;;;;;;;;;5030491;28;20025;-89
2021/12/19 05:34:09;;;;;;;8.90;3.47;;;;;;;;;;5032945;28;20115;-83
2021/12/19 05:47:25;;;;;;;8.85;3.60;;;;;;;;;;5029777;28;20092;-88
2021/12/19 05:49:50;;;;;;;10.68;4.15;;;;;;;;;;5032678;28;20037;-83
2021/12/19 05:52:16;;;;;;;8.52;3.90;;;;;;;;;;5026578;28;20026;-85
2021/12/19 05:54:41;;;;;;;9.27;3.75;;;;;;;;;;5025602;28;20521;-84
2021/12/19 05:57:07;;;;;;;8.80;3.75;;;;;;;;;;5025495;28;20030;-85
2021/12/19 05:59:32;;;;;;;10.48;4.00;;;;;;;;;;5029641;28;20470;-89
2021/12/19 06:01:58;;;;;;;9.98;3.70;;;;;;;;;;5026348;28;20021;-84
2021/12/19 06:04:23;;;;;;;9.63;3.88;;;;;;;;;;5027037;28;20033;-83
2021/12/19 06:06:49;;;;;;;8.02;3.30;;;;;;;;;;5029568;28;20023;-83
2021/12/19 06:09:15;;;;;;;9.07;3.55;;;;;;;;;;5026253;28;20068;-84
2021/12/19 06:11:40;;;;;;;8.68;3.72;;;;;;;;;;5028157;28;20157;-83
2021/12/19 06:14:05;;;;;;;8.93;3.65;;;;;;;;;;5026014;28;20501;-88
2021/12/19 06:16:31;;;;;;;8.13;3.17;;;;;;;;;;5022825;28;20108;-89
2021/12/19 06:18:56;;;;;;;8.15;3.10;;;;;;;;;;5028194;28;20028;-91
2021/12/19 06:21:22;;;;;;;7.20;3.00;;;;;;;;;;5029471;28;20025;-84
2021/12/19 06:23:47;;;;;;;7.13;3.13;;;;;;;;;;5031098;28;20120;-90
2021/12/19 06:26:13;;;;;;;6.85;3.33;;;;;;;;;;5028228;28;20025;-85
2021/12/19 06:28:38;;;;;;;6.85;3.00;;;;;;;;;;5027687;28;20024;-89
2021/12/19 06:31:04;;;;;;;8.68;3.45;;;;;;;;;;5029298;28;20029;-84
2021/12/19 06:33:29;;;;;;;9.93;3.60;;;;;;;;;;5033580;28;20025;-83
2021/12/19 06:35:58;;;;;;;7.53;3.47;;;;;;;;;;5031646;28;20068;-90
2021/12/19 06:38:23;;;;;;;8.20;3.30;;;;;;;;;;5030299;28;20025;-88
2021/12/19 06:40:49;;;;;;;8.32;3.30;;;;;;;;;;5031375;28;20686;-90
2021/12/19 06:43:14;;;;;;;8.63;3.92;;;;;;;;;;5030298;28;20029;-83
2021/12/19 06:45:39;;;;;;;10.32;3.80;;;;;;;;;;5026220;28;20033;-88
2021/12/19 06:48:05;;;;;;;7.00;3.10;;;;;;;;;;5026106;28;20044;-88
2021/12/19 06:50:30;;;;;;;8.45;3.70;;;;;;;;;;5030361;28;20037;-83
2021/12/19 06:52:56;;;;;;;6.45;3.38;;;;;;;;;;5020927;28;20037;-88
2021/12/19 06:55:22;;;;;;;7.22;3.28;;;;;;;;;;5023079;28;20037;-82
2021/12/19 06:57:47;;;;;;;8.32;3.15;;;;;;;;;;5026069;28;20068;-83
2021/12/19 07:00:17;;;;;;;6.53;2.78;;;;;;;;;;5026602;28;20092;-87
2021/12/19 07:02:42;;;;;;;6.82;3.03;;;;;;;;;;5025162;28;20025;-83
2021/12/19 07:05:10;;;;;;;6.55;2.58;;;;;;;;;;5029527;28;20025;-88
2021/12/19 07:07:35;;;;;;;6.90;2.95;;;;;;;;;;5029312;28;20049;-88
2021/12/19 07:10:01;;;;;;;7.18;2.67;;;;;;;;;;5028002;28;20059;-88
2021/12/19 07:12:27;;;;;;;5.43;2.58;;;;;;;;;;5027198;28;20435;-91
2021/12/19 07:14:54;;;;;;;8.00;2.80;;;;;;;;;;5027099;28;20040;-90
2021/12/19 07:17:19;;;;;;;6.35;2.83;;;;;;;;;;5027888;28;20036;-84
2021/12/19 07:19:45;;;;;;;6.60;2.83;;;;;;;;;;5028508;28;20030;-83
2021/12/19 07:22:10;;;;;;;6.63;3.00;;;;;;;;;;5031274;28;20051;-89
2021/12/19 07:24:36;;;;;;;6.80;2.75;;;;;;;;;;5030268;28;20029;-83
2021/12/19 07:27:01;;;;;;;6.95;3.03;;;;;;;;;;5031414;28;20476;-83
2021/12/19 07:29:26;;;;;;;7.72;3.03;;;;;;;;;;5028320;28;20040;-86
2021/12/19 07:31:52;;;;;;;7.72;3.33;;;;;;;;;;5030133;28;20048;-84
2021/12/19 07:34:17;;;;;;;5.75;2.97;;;;;;;;;;5028602;28;20120;-89
2021/12/19 07:36:49;;;;;;;5.82;2.40;;;;;;;;;;5025547;28;20231;-89
2021/12/19 07:39:38;;;;;;;7.70;3.10;;;;;;;;;;5027659;28;20026;-82
2021/12/19 07:42:06;;;;;;;7.60;2.88;;;;;;;;;;5029112;28;20025;-88
2021/12/19 07:44:32;;;;;;;7.38;2.80;;;;;;;;;;5026175;28;20079;-88
2021/12/19 07:46:58;;;;;;;8.13;2.85;;;;;;;;;;5026874;28;20026;-91
2021/12/19 07:49:24;;;;;;;7.22;3.13;;;;;;;;;;5026759;28;20026;-88
2021/12/19 07:51:49;;;;;;;6.38;2.72;;;;;;;;;;5028660;28;20449;-83
2021/12/19 07:54:14;;;;;;;7.10;3.17;;;;;;;;;;5027244;28;20028;-88
2021/12/19 07:56:40;;;;;;;7.53;3.10;;;;;;;;;;5027650;28;20532;-90
2021/12/19 07:59:06;;;;;;;6.85;3.15;;;;;;;;;;5024106;28;20029;-84
2021/12/19 08:01:32;;;;;;;8.25;3.35;;;;;;;;;;5029267;28;20113;-84
2021/12/19 08:03:58;;;;;;;6.97;3.28;;;;;;;;;;5026249;28;20034;-88
2021/12/19 08:06:23;;;;;;;5.80;2.75;;;;;;;;;;5031447;28;20040;-83
2021/12/19 08:08:52;;;;;;;10.63;3.38;;;;;;;;;;5025328;28;20810;-82
2021/12/19 08:11:39;;;;;;;7.00;2.55;;;;;;;;;;5026298;28;20057;-84
2021/12/19 08:14:06;;;;;;;7.28;2.92;;;;;;;;;;5025866;28;20025;-83
2021/12/19 08:16:32;;;;;;;5.80;2.83;;;;;;;;;;5026125;28;20029;-83
2021/12/19 08:18:57;;;;;;;8.20;2.75;;;;;;;;;;5025249;28;20109;-89
2021/12/19 08:21:23;;;;;;;6.38;2.75;;;;;;;;;;5029526;28;20470;-84
2021/12/19 08:23:48;;;;;;;5.60;2.35;;;;;;;;;;5033637;28;20083;-83
2021/12/19 08:26:14;;;;;;;5.63;2.30;;;;;;;;;;5029230;28;20530;-89
2021/12/19 08:28:40;;;;;;;6.53;2.22;;;;;;;;;;5028491;28;20026;-83
2021/12/19 08:31:05;;;;;;;5.70;2.53;;;;;;;;;;5030861;28;20017;-82
2021/12/19 08:33:31;;;;;;;6.30;2.30;;;;;;;;;;5029179;28;20035;-88
2021/12/19 08:35:59;;;;;;;6.35;2.58;;;;;;;;;;5033558;28;20404;-84
2021/12/19 08:38:25;;;;;;;5.43;2.33;;;;;;;;;;5031255;28;20040;-83
2021/12/19 08:40:51;;;;;;;6.90;2.75;;;;;;;;;;5028419;28;20037;-83
2021/12/19 08:43:17;;;;;;;5.72;2.65;;;;;;;;;;5032713;28;20083;-88
2021/12/19 08:45:43;;;;;;;8.82;3.10;;;;;;;;;;5029415;28;20390;-84
2021/12/19 08:48:09;;;;;;;7.40;3.00;;;;;;;;;;5029807;28;20029;-83
2021/12/19 08:50:34;;;;;;;6.63;2.70;;;;;;;;;;5032831;28;20493;-83
2021/12/19 08:52:59;;;;;;;7.90;3.35;;;;;;;;;;5028062;28;20044;-83
2021/12/19 08:55:25;;;;;;;8.15;3.03;;;;;;;;;;5031758;28;20022;-88
2021/12/19 08:58:06;;;;;;;7.32;3.47;;;;;;;;;;5035093;28;20037;-88
2021/12/19 09:00:33;;;;;;;6.03;2.90;;;;;;;;;;5030656;28;20034;-89
2021/12/19 09:03:09;;;;;;;6.25;2.60;;;;;;;;;;5036832;28;20108;-83
2021/12/19 09:05:37;;;;;;;5.20;2.45;;;;;;;;;;5034154;28;20029;-88
2021/12/19 09:08:10;;;;;;;5.13;2.22;;;;;;;;;;5034422;28;20021;-90
2021/12/19 09:10:39;;;;;;;5.88;2.08;;;;;;;;;;5034687;28;20451;-82
2021/12/19 09:13:07;;;;;;;3.83;1.73;;;;;;;;;;5037478;28;20056;-84
2021/12/19 09:15:39;;;;;;;2.90;1.30;;;;;;;;;;5029244;28;20084;-88
2021/12/19 09:18:04;;;;;;;4.38;1.35;;;;;;;;;;5025973;28;20037;-88
2021/12/19 09:20:30;;;;;;;2.95;0.98;;;;;;;;;;5031081;28;20032;-84
2021/12/19 09:22:57;;;;;;;3.78;1.10;;;;;;;;;;5029797;28;20035;-83
2021/12/19 09:25:23;;;;;;;2.35;1.20;;;;;;;;;;5029511;28;21414;-84
2021/12/19 09:27:59;;;;;;;3.47;1.27;;;;;;;;;;5036897;28;20026;-89
2021/12/19 09:30:25;;;;;;;2.53;1.10;;;;;;;;;;5028298;28;20052;-83
2021/12/19 09:32:51;;;;;;;2.70;1.10;;;;;;;;;;5030951;28;20021;-89
2021/12/19 09:35:20;;;;;;;2.45;1.05;;;;;;;;;;5031640;28;20040;-89
2021/12/19 09:37:47;;;;;;;3.13;1.40;;;;;;;;;;5035355;28;20112;-84
2021/12/19 09:40:20;;;;;;;3.15;1.33;;;;;;;;;;5027323;28;20025;-84
2021/12/19 09:43:01;;;;;;;4.00;1.05;;;;;;;;;;5028259;28;20052;-88
2021/12/19 09:45:26;;;;;;;2.50;1.20;;;;;;;;;;5029064;28;20095;-87
2021/12/19 09:47:52;;;;;;;2.08;1.20;;;;;;;;;;5029240;28;20053;-84
2021/12/19 09:50:18;;;;;;;2.47;0.98;;;;;;;;;;5023521;28;20047;-85
2021/12/19 09:52:45;;;;;;;1.92;0.93;;;;;;;;;;5026540;28;20809;-89
2021/12/19 09:55:10;;;;;;;2.03;0.80;;;;;;;;;;5029586;28;20060;-88
2021/12/19 09:57:36;;;;;;;1.98;0.93;;;;;;;;;;5030995;28;20068;-85
2021/12/19 10:00:04;;;;;;;1.52;0.70;;;;;;;;;;5036498;28;20023;-88
2021/12/19 10:02:29;;;;;;;1.15;0.60;;;;;;;;;;5031129;28;20021;-89
2021/12/19 10:04:55;;;;;;;1.63;0.70;;;;;;;;;;5030489;28;20084;-85
2021/12/19 10:07:28;;;;;;;4.05;1.10;;;;;;;;;;5026391;28;20022;-89
2021/12/19 10:10:02;;;;;;;1.67;0.80;;;;;;;;;;5024491;28;20025;-84
2021/12/19 10:15:19;;;;;;;1.42;0.77;;;;;;;;;;5025695;28;20026;-87
2021/12/19 10:17:46;;;;;;;1.05;0.60;;;;;;;;;;5024695;28;20053;-87
2021/12/19 10:20:14;;;;;;;1.73;0.80;;;;;;;;;;5025738;28;20031;-88
2021/12/19 10:22:46;;;;;;;2.10;0.90;;;;;;;;;;5027529;28;20045;-84
2021/12/19 10:25:21;;;;;;;1.48;0.70;;;;;;;;;;5028141;28;20053;-87
2021/12/19 10:28:13;;;;;;;1.73;0.90;;;;;;;;;;5026084;28;20021;-88
2021/12/19 10:30:51;;;;;;;1.80;0.70;;;;;;;;;;5043208;28;20104;-85
2021/12/19 10:33:27;;;;;;;2.22;1.00;;;;;;;;;;5027858;28;20037;-84
2021/12/19 10:36:16;;;;;;;2.13;1.10;;;;;;;;;;5031934;28;20061;-85
2021/12/19 10:38:56;;;;;;;2.33;0.90;;;;;;;;;;5022129;28;20033;-85
2021/12/19 10:41:30;;;;;;;1.23;0.60;;;;;;;;;;5029601;28;20036;-88
2021/12/19 10:45:29;;;;;;;1.25;0.70;;;;;;;;;;5024577;28;20026;-89
2021/12/19 10:46:55;;;;;;;1.63;0.70;;;;;;;;;;5028828;28;20033;-85
2021/12/19 10:49:32;;;;;;;3.40;0.65;;;;;;;;;;5020845;28;20065;-88
2021/12/19 10:52:01;;;;;;;1.58;0.70;;;;;;;;;;5029009;28;20033;-84
2021/12/19 10:54:28;;;;;;;1.83;0.90;;;;;;;;;;5026381;28;20451;-89
2021/12/19 10:57:10;;;;;;;1.67;0.60;;;;;;;;;;5032473;28;20022;-84
2021/12/19 10:59:55;;;;;;;1.77;0.80;;;;;;;;;;5022488;28;20025;-84
2021/12/19 11:02:57;;;;;;;0.75;0.50;;;;;;;;;;5022602;28;20026;-88
2021/12/19 11:05:36;;;;;;;1.60;0.60;;;;;;;;;;5019266;28;20116;-83
2021/12/19 11:08:08;;;;;;;1.60;0.70;;;;;;;;;;5024495;28;20018;-92
2021/12/19 11:10:37;;;;;;;1.17;0.63;;;;;;;;;;5025806;28;20064;-88
2021/12/19 11:13:22;;;;;;;1.70;0.90;;;;;;;;;;5025775;28;20033;-89
2021/12/19 11:16:13;;;;;;;3.00;0.93;;;;;;;;;;5028701;28;20033;-91
2021/12/19 11:19:05;;;;;;;1.85;1.10;;;;;;;;;;5020264;28;20029;-83
2021/12/19 11:21:34;;;;;;;2.78;1.10;;;;;;;;;;5027911;28;20082;-84
2021/12/19 11:24:02;;;;;;;1.80;0.90;;;;;;;;;;5024012;28;20079;-91
2021/12/19 11:26:28;;;;;;;1.35;0.77;;;;;;;;;;5027996;28;20117;-88
2021/12/19 11:28:55;;;;;;;1.60;0.73;;;;;;;;;;5028022;28;20025;-83
2021/12/19 11:31:28;;;;;;;2.85;0.80;;;;;;;;;;5031727;28;20025;-86
2021/12/19 11:34:33;;;;;;;2.33;0.98;;;;;;;;;;5030681;28;20026;-84
2021/12/19 11:37:07;;;;;;;1.50;0.88;;;;;;;;;;5029157;28;20546;-82
2021/12/19 11:39:35;;;;;;;2.08;0.90;;;;;;;;;;5021824;28;20029;-82
2021/12/19 11:42:04;;;;;;;3.00;1.10;;;;;;;;;;5024760;28;20025;-82
2021/12/19 11:44:35;;;;;;;2.83;1.20;;;;;;;;;;5029109;28;20100;-87
2021/12/19 11:47:06;;;;;;;3.15;1.50;;;;;;;;;;5028225;28;20032;-87
2021/12/19 11:49:31;;;;;;;4.28;1.50;;;;;;;;;;5027794;28;20040;-88
2021/12/19 11:52:23;;;;;;;4.43;1.88;;;;;;;;;;5025040;28;20393;-83
2021/12/19 11:55:13;;;;;;;7.63;2.05;;;;;;;;;;5027601;28;20018;-84
2021/12/19 11:58:01;;;;;;;8.30;2.30;;;;;;;;;;5029351;28;20061;-83
2021/12/19 12:00:32;;;;;;;6.93;2.85;;;;;;;;;;5018818;28;20030;-87
2021/12/19 12:03:12;;;;;;;6.88;2.67;;;;;;;;;;5042369;28;20045;-88
2021/12/19 12:05:43;;;;;;;7.90;2.72;;;;;;;;;;5024927;28;20044;-82
2021/12/19 12:08:09;;;;;;;5.90;2.67;;;;;;;;;;5030646;28;20018;-82
2021/12/19 12:10:50;;;;;;;9.98;2.10;;;;;;;;;;5019583;28;20038;-82
2021/12/19 12:13:29;;;;;;;5.93;2.25;;;;;;;;;;5030590;28;20044;-88
2021/12/19 12:16:06;;;;;;;5.63;1.70;;;;;;;;;;5026425;28;20057;-85
2021/12/19 12:18:36;;;;;;;6.47;3.17;;;;;;;;;;5029565;28;20481;-85
2021/12/19 12:21:21;;;;;;;5.70;2.38;;;;;;;;;;5027950;28;20075;-83
2021/12/19 12:23:53;;;;;;;7.43;2.08;;;;;;;;;;5029505;28;20029;-85
2021/12/19 12:26:36;;;;;;;6.88;2.20;;;;;;;;;;5028972;28;20064;-86
2021/12/19 12:29:02;;;;;;;6.25;2.17;;;;;;;;;;5030122;28;20029;-86
2021/12/19 12:31:48;;;;;;;5.97;2.15;;;;;;;;;;5027815;28;20029;-89
2021/12/19 12:34:16;;;;;;;5.22;2.22;;;;;;;;;;5029687;28;20036;-86
2021/12/19 12:36:42;;;;;;;4.53;2.05;;;;;;;;;;5033238;28;20534;-88
2021/12/19 12:39:22;;;;;;;8.18;2.50;;;;;;;;;;5033225;28;20013;-88
2021/12/19 12:41:58;;;;;;;5.68;2.15;;;;;;;;;;5026051;28;20037;-90
2021/12/19 12:45:12;;;;;;;7.25;2.80;;;;;;;;;;5033144;28;20033;-82
2021/12/19 12:47:41;;;;;;;6.50;3.17;;;;;;;;;;5008729;28;20033;-89
2021/12/19 12:50:12;;;;;;;8.75;2.70;;;;;;;;;;5032572;28;20026;-90
2021/12/19 12:52:46;;;;;;;4.93;2.40;;;;;;;;;;5034983;28;20025;-88
2021/12/19 12:55:15;;;;;;;7.18;2.60;;;;;;;;;;5038237;28;20018;-89
2021/12/19 12:57:45;;;;;;;7.00;3.00;;;;;;;;;;5027591;28;20033;-83
2021/12/19 13:00:19;;;;;;;7.90;3.03;;;;;;;;;;5028283;28;20737;-83
2021/12/19 13:02:53;;;;;;;10.40;2.60;;;;;;;;;;5024071;28;20642;-89
2021/12/19 13:05:18;;;;;;;7.65;2.55;;;;;;;;;;5032473;28;20083;-84
2021/12/19 13:07:44;;;;;;;7.90;2.80;;;;;;;;;;5030447;28;20049;-85
2021/12/19 13:10:09;;;;;;;10.45;2.78;;;;;;;;;;5030994;28;20032;-83
2021/12/19 13:12:45;;;;;;;7.45;2.83;;;;;;;;;;5023720;28;20037;-89
2021/12/19 13:15:15;;;;;;;5.75;2.38;;;;;;;;;;5027576;28;20074;-87
2021/12/19 13:17:43;;;;;;;10.75;2.38;;;;;;;;;;5033504;28;20025;-88
2021/12/19 13:20:11;;;;;;;5.45;2.13;;;;;;;;;;5032176;28;20018;-84
2021/12/19 13:22:39;;;;;;;5.45;2.42;;;;;;;;;;5031016;28;20039;-88
2021/12/19 13:25:12;;;;;;;7.60;2.25;;;;;;;;;;5032067;28;20036;-90
2021/12/19 13:27:43;;;;;;;6.15;2.00;;;;;;;;;;5040342;28;20025;-87
2021/12/19 13:30:18;;;;;;;3.83;1.90;;;;;;;;;;5031028;28;20056;-83
2021/12/19 13:32:55;;;;;;;4.20;2.22;;;;;;;;;;5031894;28;20029;-87
2021/12/19 13:35:29;;;;;;;4.07;1.90;;;;;;;;;;5031543;28;20036;-90
2021/12/19 13:38:07;;;;;;;6.70;1.98;;;;;;;;;;5029908;28;20044;-87
2021/12/19 13:40:54;;;;;;;5.45;1.60;;;;;;;;;;5030084;28;20556;-90
2021/12/19 13:43:29;;;;;;;4.70;1.83;;;;;;;;;;5032915;28;20761;-83
2021/12/19 13:45:58;;;;;;;4.47;1.67;;;;;;;;;;5033667;28;20390;-88
2021/12/19 13:48:32;;;;;;;6.88;1.73;;;;;;;;;;5027658;28;20485;-88
2021/12/19 13:51:07;;;;;;;4.75;1.30;;;;;;;;;;5034902;28;20136;-88
2021/12/19 13:53:36;;;;;;;3.72;1.27;;;;;;;;;;5047646;28;20088;-85
2021/12/19 13:56:11;;;;;;;3.78;1.60;;;;;;;;;;5023096;28;20389;-83
2021/12/19 13:58:40;;;;;;;5.47;1.60;;;;;;;;;;5032508;28;20030;-82
2021/12/19 14:01:29;;;;;;;2.55;1.27;;;;;;;;;;5029755;28;20095;-85
2021/12/19 14:04:01;;;;;;;3.05;1.50;;;;;;;;;;5027680;28;20135;-88
2021/12/19 14:06:53;;;;;;;5.03;1.63;;;;;;;;;;5030183;28;20029;-82
2021/12/19 14:09:21;;;;;;;7.50;1.80;;;;;;;;;;5024208;28;20038;-84
2021/12/19 14:11:59;;;;;;;4.25;1.40;;;;;;;;;;5024578;28;20105;-88
2021/12/19 14:14:32;;;;;;;4.80;2.00;;;;;;;;;;5031814;28;20123;-83
2021/12/19 14:17:12;;;;;;;4.70;1.97;;;;;;;;;;5033209;28;20044;-89
2021/12/19 14:19:44;;;;;;;4.78;2.03;;;;;;;;;;5030717;28;20026;-89
2021/12/19 14:22:12;;;;;;;3.63;1.90;;;;;;;;;;5030291;28;20068;-85
2021/12/19 14:24:52;;;;;;;3.17;1.65;;;;;;;;;;5035945;28;20312;-87
2021/12/19 14:27:27;;;;;;;5.88;2.00;;;;;;;;;;5030324;28;20031;-90
2021/12/19 14:29:55;;;;;;;5.53;2.25;;;;;;;;;;5029284;28;20393;-88
2021/12/19 14:32:38;;;;;;;7.53;1.83;;;;;;;;;;5031355;28;20025;-88
2021/12/19 14:35:18;;;;;;;4.40;1.67;;;;;;;;;;5028841;28;20481;-86
2021/12/19 14:37:51;;;;;;;4.88;1.77;;;;;;;;;;5042363;28;20029;-88
2021/12/19 14:40:28;;;;;;;5.05;1.85;;;;;;;;;;5035573;28;20377;-87
2021/12/19 14:43:05;;;;;;;3.65;1.52;;;;;;;;;;5027864;28;20037;-87
2021/12/19 14:45:37;;;;;;;4.78;1.77;;;;;;;;;;5032398;28;20025;-86
2021/12/19 14:48:10;;;;;;;6.10;1.90;;;;;;;;;;5027876;28;20021;-88
2021/12/19 14:50:48;;;;;;;5.68;2.28;;;;;;;;;;5025699;28;20489;-85
2021/12/19 14:53:22;;;;;;;3.65;1.80;;;;;;;;;;5023267;28;20033;-86
2021/12/19 14:55:51;;;;;;;6.25;1.95;;;;;;;;;;5026767;28;20037;-84
2021/12/19 14:58:17;;;;;;;7.43;1.77;;;;;;;;;;5027953;28;20045;-86
2021/12/19 15:00:47;;;;;;;4.45;2.15;;;;;;;;;;5027314;28;20025;-84
2021/12/19 15:03:13;;;;;;;5.25;2.13;;;;;;;;;;5028538;28;20040;-85
2021/12/19 15:05:41;;;;;;;5.15;1.90;;;;;;;;;;5032243;28;20108;-89
2021/12/19 15:08:09;;;;;;;5.97;1.90;;;;;;;;;;5026792;28;20699;-84
2021/12/19 15:10:35;;;;;;;4.60;2.10;;;;;;;;;;5028248;28;20044;-86
2021/12/19 15:13:01;;;;;;;5.50;2.15;;;;;;;;;;5028561;28;20025;-87
2021/12/19 15:15:29;;;;;;;6.30;2.00;;;;;;;;;;5029003;28;20029;-82
2021/12/19 15:18:00;;;;;;;3.92;1.70;;;;;;;;;;5028774;28;20537;-87
2021/12/19 15:20:26;;;;;;;4.70;2.03;;;;;;;;;;5024855;28;20102;-88
2021/12/19 15:22:51;;;;;;;6.72;1.98;;;;;;;;;;5022875;28;20033;-88
2021/12/19 15:25:17;;;;;;;5.10;2.33;;;;;;;;;;5027676;28;20370;-87
2021/12/19 15:27:43;;;;;;;5.55;2.00;;;;;;;;;;5027127;28;20017;-83
2021/12/19 15:30:10;;;;;;;4.72;1.90;;;;;;;;;;5025003;28;20057;-84
2021/12/19 15:32:38;;;;;;;5.00;1.63;;;;;;;;;;5027829;28;20052;-84
2021/12/19 15:35:06;;;;;;;7.22;1.80;;;;;;;;;;5028432;28;20033;-84
2021/12/19 15:37:32;;;;;;;4.03;1.80;;;;;;;;;;5031227;28;20026;-88
2021/12/19 15:39:57;;;;;;;4.10;1.55;;;;;;;;;;5028698;28;20164;-89
2021/12/19 15:42:23;;;;;;;5.05;1.70;;;;;;;;;;5031405;28;20079;-88
2021/12/19 15:44:48;;;;;;;5.40;1.65;;;;;;;;;;5023438;28;20033;-83
2021/12/19 15:47:13;;;;;;;4.10;1.55;;;;;;;;;;5027130;28;20104;-84
2021/12/19 15:49:39;;;;;;;4.28;1.60;;;;;;;;;;5027048;28;20029;-89
2021/12/19 15:52:12;;;;;;;2.55;1.60;;;;;;;;;;5029340;28;20048;-89
2021/12/19 15:54:42;;;;;;;5.50;2.10;;;;;;;;;;5026989;28;20025;-87
2021/12/19 15:57:12;;;;;;;3.40;1.70;;;;;;;;;;5024671;28;20037;-86
2021/12/19 15:59:45;;;;;;;3.80;1.80;;;;;;;;;;5025090;28;20133;-85
2021/12/19 16:02:15;;;;;;;2.92;1.45;;;;;;;;;;5028026;28;20109;-88
2021/12/19 16:04:46;;;;;;;3.13;1.73;;;;;;;;;;5029694;28;20039;-89